createdAt,value
2022-08-23T00:01:24.919Z,1999.90
2022-08-23T00:03:53.833Z,1999.90
2022-08-23T00:06:22.660Z,1999.90
2022-08-23T00:08:52.273Z,1999.90
2022-08-23T00:11:36.788Z,1999.90
2022-08-23T00:14:11.156Z,218.10
2022-08-23T00:16:38.911Z,341.05
2022-08-23T00:19:07.595Z,493.13
2022-08-23T00:21:36.967Z,746.88
2022-08-23T00:24:07.119Z,907.30
2022-08-23T00:27:07.474Z,1346.97
2022-08-23T00:29:47.312Z,1313.80
2022-08-23T00:32:18.324Z,1496.68
2022-08-23T00:34:45.559Z,1418.90
2022-08-23T00:37:13.510Z,1341.00
2022-08-23T00:39:41.290Z,1364.28
2022-08-23T00:42:43.810Z,1280.93
2022-08-23T00:45:33.301Z,1057.63
2022-08-23T00:48:01.665Z,814.38
2022-08-23T00:51:05.117Z,687.63
2022-08-23T00:53:37.950Z,574.97
2022-08-23T00:56:09.331Z,747.92
2022-08-23T00:58:36.786Z,709.50
2022-08-23T01:01:06.761Z,638.58
2022-08-23T01:03:39.362Z,499.27
2022-08-23T01:06:19.351Z,544.35
2022-08-23T01:08:52.241Z,414.27
2022-08-23T01:11:45.541Z,654.35
2022-08-23T01:14:32.936Z,590.63
2022-08-23T01:17:16.608Z,540.10
2022-08-23T01:20:00.376Z,533.30
2022-08-23T01:22:36.921Z,427.88
2022-08-23T01:25:11.233Z,464.27
2022-08-23T01:27:41.815Z,691.97
2022-08-23T01:30:17.960Z,766.50
2022-08-23T01:32:50.654Z,818.35
2022-08-23T01:37:53.504Z,1064.22
2022-08-23T01:40:20.827Z,1224.53
2022-08-23T01:42:49.408Z,1341.15
2022-08-23T01:45:16.849Z,1050.75
2022-08-23T01:47:45.131Z,1097.03
2022-08-23T01:50:12.855Z,1047.57
2022-08-23T01:52:46.685Z,1063.57
2022-08-23T01:55:26.128Z,1005.40
2022-08-23T01:57:56.995Z,830.90
2022-08-23T02:00:34.063Z,920.92
2022-08-23T02:03:02.541Z,939.97
2022-08-23T02:05:30.638Z,969.95
2022-08-23T02:08:18.382Z,1107.70
2022-08-23T02:10:45.753Z,953.20
2022-08-23T02:13:13.103Z,1018.00
2022-08-23T02:15:46.808Z,980.95
2022-08-23T02:18:14.194Z,934.70
2022-08-23T02:20:50.397Z,882.88
2022-08-23T02:23:18.579Z,876.28
2022-08-23T02:25:45.923Z,888.50
2022-08-23T02:28:13.652Z,823.80
2022-08-23T02:30:40.862Z,855.88
2022-08-23T02:33:11.037Z,862.38
2022-08-23T02:35:41.451Z,966.75
2022-08-23T02:38:11.480Z,958.50
2022-08-23T02:40:39.809Z,915.20
2022-08-23T02:43:07.619Z,981.67
2022-08-23T02:45:36.641Z,1079.28
2022-08-23T02:48:04.990Z,1173.38
2022-08-23T02:50:41.040Z,1250.38
2022-08-23T02:53:08.405Z,1166.97
2022-08-23T02:55:35.862Z,1189.70
2022-08-23T02:58:05.382Z,1024.13
2022-08-23T03:00:32.937Z,1331.30
2022-08-23T03:03:00.221Z,995.53
2022-08-23T03:05:27.461Z,1010.97
2022-08-23T03:07:54.823Z,1178.03
2022-08-23T03:10:22.778Z,1431.90
2022-08-23T03:12:56.466Z,1500.95
2022-08-23T03:15:23.696Z,1469.85
2022-08-23T03:17:50.900Z,1555.80
2022-08-23T03:20:18.567Z,1464.03
2022-08-23T03:22:48.227Z,1587.38
2022-08-23T03:25:22.294Z,1580.60
2022-08-23T03:28:07.953Z,1465.32
2022-08-23T03:30:38.954Z,1541.28
2022-08-23T03:33:07.562Z,1458.32
2022-08-23T03:35:35.179Z,1572.22
2022-08-23T03:38:03.875Z,1449.72
2022-08-23T03:40:31.227Z,1484.57
2022-08-23T03:42:58.457Z,1364.75
2022-08-23T03:45:28.305Z,1435.43
2022-08-23T03:47:55.544Z,1379.00
2022-08-23T03:50:22.936Z,1381.03
2022-08-23T03:52:51.259Z,1568.60
2022-08-23T03:55:18.627Z,1376.05
2022-08-23T03:57:49.105Z,1401.40
2022-08-23T04:00:20.492Z,1408.13
2022-08-23T04:02:49.939Z,1473.43
2022-08-23T04:05:18.023Z,1537.00
2022-08-23T04:07:51.198Z,1501.82
2022-08-23T04:10:21.771Z,1607.95
2022-08-23T04:12:54.662Z,1569.00
2022-08-23T04:15:22.575Z,1707.38
2022-08-23T04:17:49.815Z,1388.30
2022-08-23T04:20:17.746Z,1012.28
2022-08-23T04:22:55.238Z,964.25
2022-08-23T04:25:34.592Z,904.67
2022-08-23T04:28:04.896Z,980.17
2022-08-23T04:30:33.384Z,963.33
2022-08-23T04:33:01.634Z,1033.60
2022-08-23T04:35:30.394Z,905.67
2022-08-23T04:37:57.740Z,943.83
2022-08-23T04:40:44.570Z,883.85
2022-08-23T04:43:13.078Z,642.70
2022-08-23T04:45:41.349Z,493.40
2022-08-23T04:48:15.090Z,581.05
2022-08-23T04:50:46.402Z,451.92
2022-08-23T04:53:17.032Z,352.98
2022-08-23T04:56:03.435Z,257.23
2022-08-23T04:58:32.407Z,283.73
2022-08-23T05:01:01.697Z,232.23
2022-08-23T05:03:29.909Z,197.93
2022-08-23T05:05:58.835Z,613.33
2022-08-23T05:08:33.265Z,263.85
2022-08-23T05:11:06.055Z,227.25
2022-08-23T05:13:34.864Z,357.92
2022-08-23T05:16:04.358Z,442.90
2022-08-23T05:18:34.998Z,379.92
2022-08-23T05:21:02.990Z,348.10
2022-08-23T05:23:32.185Z,323.75
2022-08-23T05:26:11.633Z,528.50
2022-08-23T05:28:44.846Z,720.95
2022-08-23T05:31:20.721Z,498.67
2022-08-23T05:33:57.699Z,225.25
2022-08-23T05:36:32.156Z,1999.90
2022-08-23T05:39:00.847Z,1999.90
2022-08-23T05:41:38.437Z,1999.90
2022-08-23T05:44:10.420Z,1999.90
2022-08-23T05:46:42.126Z,1999.90
2022-08-23T05:49:38.886Z,1999.90
2022-08-23T05:52:09.456Z,1999.90
2022-08-23T05:54:38.104Z,1999.90
2022-08-23T05:57:24.207Z,1999.90
2022-08-23T05:59:51.390Z,1999.90
2022-08-23T06:02:18.711Z,1999.90
2022-08-23T06:04:45.890Z,1999.90
2022-08-23T06:07:13.093Z,1999.90
2022-08-23T06:09:40.498Z,1999.90
2022-08-23T06:12:09.586Z,1999.90
2022-08-23T06:14:38.488Z,1999.90
2022-08-23T06:17:05.864Z,1999.90
2022-08-23T06:19:33.445Z,1999.90
2022-08-23T06:22:19.406Z,1999.90
2022-08-23T06:24:47.959Z,1999.90
2022-08-23T06:27:18.187Z,1999.90
2022-08-23T06:29:46.071Z,1999.90
2022-08-23T06:32:33.608Z,1999.90
2022-08-23T06:35:39.276Z,1999.90
2022-08-23T06:38:27.587Z,1999.90
2022-08-23T06:41:06.471Z,1999.90
2022-08-23T06:44:05.139Z,1999.90
2022-08-23T06:46:34.108Z,1999.90
2022-08-23T06:49:05.061Z,1999.90
2022-08-23T06:51:41.237Z,1999.90
2022-08-23T06:54:23.247Z,1999.90
2022-08-23T06:57:14.264Z,1999.90
2022-08-23T06:59:54.904Z,1999.90
2022-08-23T07:02:34.006Z,1999.90
2022-08-23T07:05:19.966Z,1999.90
2022-08-23T07:08:07.423Z,1999.90
2022-08-23T07:10:35.450Z,1999.90
2022-08-23T07:13:03.815Z,1999.90
2022-08-23T07:15:31.015Z,1999.90
2022-08-23T07:17:58.782Z,1999.90
2022-08-23T07:20:26.327Z,1999.90
2022-08-23T07:22:53.562Z,1999.90
2022-08-23T07:25:20.835Z,1999.90
2022-08-23T07:27:54.370Z,1999.90
2022-08-23T07:30:22.374Z,1999.90
2022-08-23T07:32:51.398Z,1999.90
2022-08-23T07:35:22.826Z,1999.90
2022-08-23T07:37:53.156Z,1999.90
2022-08-23T07:40:21.124Z,1999.90
2022-08-23T07:42:52.623Z,1999.90
2022-08-23T07:45:23.001Z,1999.90
2022-08-23T07:47:54.247Z,1999.90
2022-08-23T07:50:22.568Z,1999.90
2022-08-23T07:52:51.135Z,1999.90
2022-08-23T07:55:18.443Z,1999.90
2022-08-23T07:58:13.374Z,1999.90
2022-08-23T08:00:52.523Z,1999.90
2022-08-23T08:03:40.015Z,1999.90
2022-08-23T08:06:33.302Z,1999.90
2022-08-23T08:09:00.938Z,1999.90
2022-08-23T08:11:34.864Z,1999.90
2022-08-23T08:14:08.698Z,1999.90
2022-08-23T08:16:42.266Z,1999.90
2022-08-23T08:19:15.019Z,1999.90
2022-08-23T08:22:08.875Z,1999.90
2022-08-23T08:24:59.095Z,1999.90
2022-08-23T08:27:26.970Z,1999.90
2022-08-23T08:29:55.250Z,1999.90
2022-08-23T08:32:22.435Z,1999.90
2022-08-23T08:34:49.626Z,1999.90
2022-08-23T08:37:17.169Z,1999.90
2022-08-23T08:39:47.123Z,1999.90
2022-08-23T08:42:42.671Z,1999.90
2022-08-23T08:45:24.457Z,1999.90
2022-08-23T08:48:13.779Z,1999.90
2022-08-23T08:51:21.955Z,1999.90
2022-08-23T08:53:55.392Z,1999.90
2022-08-23T08:56:41.038Z,1999.90
2022-08-23T08:59:43.907Z,1999.90
2022-08-23T09:02:32.824Z,1999.90
2022-08-23T09:05:09.713Z,1999.90
2022-08-23T09:08:02.025Z,1999.90
2022-08-23T09:10:58.734Z,1999.90
2022-08-23T09:13:59.694Z,1999.90
2022-08-23T09:16:37.298Z,1999.90
2022-08-23T09:19:04.886Z,1999.90
2022-08-23T09:21:58.834Z,1999.90
2022-08-23T09:24:27.366Z,1999.90
2022-08-23T09:27:02.102Z,1999.90
2022-08-23T09:29:34.124Z,1999.90
2022-08-23T09:32:04.120Z,1999.90
2022-08-23T09:34:36.239Z,1999.90
2022-08-23T09:37:12.430Z,1999.90
2022-08-23T09:39:44.376Z,1999.90
2022-08-23T09:42:37.378Z,1999.90
2022-08-23T09:45:35.472Z,1999.90
2022-08-23T09:48:06.364Z,1999.90
2022-08-23T09:50:45.402Z,1999.90
2022-08-23T09:53:15.974Z,1999.90
2022-08-23T09:55:50.547Z,1999.90
2022-08-23T09:58:18.571Z,1999.90
2022-08-23T10:01:16.629Z,1999.90
2022-08-23T10:04:05.935Z,1999.90
2022-08-23T10:06:36.199Z,1999.90
2022-08-23T10:09:07.455Z,1999.90
2022-08-23T10:11:45.095Z,1999.90
2022-08-23T10:14:20.947Z,1999.90
2022-08-23T10:17:16.729Z,1999.90
2022-08-23T10:19:54.010Z,1999.90
2022-08-23T10:22:22.616Z,1999.90
2022-08-23T10:25:31.194Z,1999.90
2022-08-23T10:28:25.014Z,1999.90
2022-08-23T10:31:21.044Z,1999.90
2022-08-23T10:34:09.791Z,1999.90
2022-08-23T10:37:06.608Z,1999.90
2022-08-23T10:39:37.389Z,1999.90
2022-08-23T10:42:27.038Z,1999.90
2022-08-23T10:45:22.538Z,1999.90
2022-08-23T10:48:09.093Z,1999.90
2022-08-23T10:50:45.031Z,1999.90
2022-08-23T10:53:47.425Z,1999.90
2022-08-23T10:56:19.308Z,1999.90
2022-08-23T10:59:00.848Z,1999.90
2022-08-23T11:01:44.403Z,1999.90
2022-08-23T11:04:26.875Z,1999.90
2022-08-23T11:07:23.576Z,1999.90
2022-08-23T11:10:16.339Z,1999.90
2022-08-23T11:12:56.928Z,1999.90
2022-08-23T11:15:45.090Z,1999.90
2022-08-23T11:18:41.040Z,1999.90
2022-08-23T11:21:17.806Z,1999.90
2022-08-23T11:23:58.796Z,1999.90
2022-08-23T11:26:27.957Z,1999.90
2022-08-23T11:29:18.139Z,1999.90
2022-08-23T11:32:17.438Z,1999.90
2022-08-23T11:35:08.871Z,1999.90
2022-08-23T11:38:04.162Z,1999.90
2022-08-23T11:40:56.986Z,1999.90
2022-08-23T11:43:38.128Z,1999.90
2022-08-23T11:46:35.871Z,1999.90
2022-08-23T11:49:29.255Z,1999.90
2022-08-23T11:52:20.456Z,1999.90
2022-08-23T11:54:47.584Z,1999.90
2022-08-23T11:57:54.412Z,1999.90
2022-08-23T12:00:44.707Z,1999.90
2022-08-23T12:03:38.210Z,1999.90
2022-08-23T12:06:21.343Z,1999.90
2022-08-23T12:08:51.807Z,1999.90
2022-08-23T12:11:19.813Z,1999.90
2022-08-23T12:13:56.266Z,1999.90
2022-08-23T12:16:24.127Z,1999.90
2022-08-23T12:18:52.817Z,1999.90
2022-08-23T12:21:51.886Z,1999.90
2022-08-23T12:24:25.157Z,1999.90
2022-08-23T12:27:00.441Z,1999.90
2022-08-23T12:29:42.274Z,1999.90
2022-08-23T12:32:24.064Z,1999.90
2022-08-23T12:35:27.919Z,1999.90
2022-08-23T12:38:08.182Z,1999.90
2022-08-23T12:40:42.472Z,1999.90
2022-08-23T12:43:18.218Z,1999.90
2022-08-23T12:45:55.200Z,1999.90
2022-08-23T12:48:27.152Z,1999.90
2022-08-23T12:51:00.338Z,1999.90
2022-08-23T12:53:34.756Z,1999.90
2022-08-23T12:56:06.885Z,1999.90
2022-08-23T12:58:36.915Z,1999.90
2022-08-23T13:01:08.451Z,1999.90
2022-08-23T13:03:40.701Z,1999.90
2022-08-23T13:06:12.120Z,1999.90
2022-08-23T13:08:45.821Z,1999.90
2022-08-23T13:11:17.881Z,1999.90
2022-08-23T13:13:45.491Z,1999.90
2022-08-23T13:16:27.679Z,1999.90
2022-08-23T13:19:22.922Z,1999.90
2022-08-23T13:22:09.381Z,1999.90
2022-08-23T13:24:39.587Z,1999.90
2022-08-23T13:27:27.022Z,1999.90
2022-08-23T13:29:59.375Z,1999.90
2022-08-23T13:32:43.744Z,1999.90
2022-08-23T13:35:37.106Z,1999.90
2022-08-23T13:38:21.434Z,1999.90
2022-08-23T13:41:12.439Z,1999.90
2022-08-23T13:43:51.006Z,1999.90
2022-08-23T13:46:27.660Z,1999.90
2022-08-23T13:49:01.605Z,1999.90
2022-08-23T13:51:32.615Z,1999.90
2022-08-23T13:54:02.867Z,1999.90
2022-08-23T13:56:34.132Z,1999.90
2022-08-23T13:59:18.234Z,1999.90
2022-08-23T14:01:45.667Z,1999.90
2022-08-23T14:04:12.942Z,1999.90
2022-08-23T14:06:40.107Z,1999.90
2022-08-23T14:09:07.368Z,1999.90
2022-08-23T14:11:35.214Z,1999.90
2022-08-23T14:14:02.638Z,1999.90
2022-08-23T14:16:35.246Z,1999.90
2022-08-23T14:21:53.902Z,1999.90
2022-08-23T14:24:21.411Z,1999.90
2022-08-23T14:26:50.103Z,1999.90
2022-08-23T14:29:22.249Z,1999.90
2022-08-23T14:31:51.888Z,1999.90
2022-08-23T14:34:20.017Z,1999.90
2022-08-23T14:39:35.225Z,1999.90
2022-08-23T14:42:04.012Z,1999.90
2022-08-23T14:44:34.317Z,1999.90
2022-08-23T14:47:05.604Z,1999.90
2022-08-23T14:49:33.859Z,1999.90
2022-08-23T14:52:01.716Z,1999.90
2022-08-23T14:54:29.006Z,1999.90
2022-08-23T14:56:56.375Z,1999.90
2022-08-23T14:59:23.570Z,1999.90
2022-08-23T15:01:53.103Z,1999.90
2022-08-23T15:04:23.249Z,1999.90
2022-08-23T15:07:16.038Z,1999.90
2022-08-23T15:09:38.621Z,1999.90
2022-08-23T15:12:58.287Z,1999.90
2022-08-23T15:14:53.605Z,1999.90
2022-08-23T15:17:20.935Z,1999.90
2022-08-23T15:19:48.174Z,1999.90
2022-08-23T15:22:21.407Z,1999.90
2022-08-23T15:24:49.655Z,1999.90
2022-08-23T15:27:18.682Z,1999.90
2022-08-23T15:29:45.938Z,1999.90
2022-08-23T15:32:13.180Z,1999.90
2022-08-23T15:34:46.141Z,1999.90
2022-08-23T15:37:14.199Z,1999.90
2022-08-23T15:39:42.283Z,1999.90
2022-08-23T15:42:09.719Z,1999.90
2022-08-23T15:44:36.975Z,1999.90
2022-08-23T15:47:13.584Z,1999.90
2022-08-23T15:49:41.570Z,1999.90
2022-08-23T15:52:08.778Z,1999.90
2022-08-23T15:54:36.085Z,1999.90
2022-08-23T15:57:04.051Z,1999.90
2022-08-23T15:59:34.439Z,1999.90
2022-08-23T16:02:01.833Z,1999.90
2022-08-23T16:04:32.655Z,1999.90
2022-08-23T16:07:08.047Z,1999.90
2022-08-23T16:09:36.490Z,1999.90
2022-08-23T16:12:05.024Z,1999.90
2022-08-23T16:14:32.522Z,1999.90
2022-08-23T16:17:00.502Z,1999.90
2022-08-23T16:19:28.323Z,1999.90
2022-08-23T16:21:56.962Z,1999.90
2022-08-23T16:24:24.862Z,1999.90
2022-08-23T16:26:52.344Z,1999.90
2022-08-23T16:29:20.656Z,1999.90
2022-08-23T16:31:48.279Z,1999.90
2022-08-23T16:34:18.162Z,1999.90
2022-08-23T16:36:50.485Z,1999.90
2022-08-23T16:39:18.070Z,1999.90
2022-08-23T16:41:45.430Z,1999.90
2022-08-23T16:44:13.064Z,1999.90
2022-08-23T16:46:42.718Z,1999.90
2022-08-23T16:49:12.046Z,1999.90
2022-08-23T16:51:39.641Z,1999.90
2022-08-23T16:54:08.307Z,1999.90
2022-08-23T16:56:36.883Z,1999.90
2022-08-23T16:59:06.878Z,1999.90
2022-08-23T17:01:54.602Z,1999.90
2022-08-23T17:04:24.652Z,1999.90
2022-08-23T17:06:58.530Z,1999.90
2022-08-23T17:09:28.331Z,1999.90
2022-08-23T17:11:58.007Z,1999.90
2022-08-23T17:14:26.134Z,1999.90
2022-08-23T17:16:53.504Z,1999.90
2022-08-23T17:19:20.822Z,1999.90
2022-08-23T17:21:48.834Z,1999.90
2022-08-23T17:24:16.062Z,1999.90
2022-08-23T17:26:43.526Z,1999.90
2022-08-23T17:29:12.207Z,1999.90
2022-08-23T17:31:39.896Z,1999.90
2022-08-23T17:34:07.410Z,1999.90
2022-08-23T17:36:46.197Z,1999.90
2022-08-23T17:39:18.111Z,1999.90
2022-08-23T17:41:45.815Z,1999.90
2022-08-23T17:44:13.496Z,1999.90
2022-08-23T17:46:44.002Z,1999.90
2022-08-23T17:49:11.944Z,1999.90
2022-08-23T17:51:40.986Z,1999.90
2022-08-23T17:54:11.153Z,1999.90
2022-08-23T17:56:38.375Z,1999.90
2022-08-23T17:59:08.989Z,1999.90
2022-08-23T18:01:37.667Z,1999.90
2022-08-23T18:04:06.425Z,1999.90
2022-08-23T18:06:36.369Z,1999.90
2022-08-23T18:09:07.643Z,1999.90
2022-08-23T18:11:35.854Z,1999.90
2022-08-23T18:14:03.471Z,1999.90
2022-08-23T18:16:35.359Z,1999.90
2022-08-23T18:19:04.872Z,1999.90
2022-08-23T18:21:33.025Z,1999.90
2022-08-23T18:24:00.335Z,1999.90
2022-08-23T18:26:46.798Z,1999.90
2022-08-23T18:29:14.753Z,1999.90
2022-08-23T18:31:43.310Z,1999.90
2022-08-23T18:34:12.276Z,1999.90
2022-08-23T18:36:39.986Z,1999.90
2022-08-23T18:39:08.335Z,1999.90
2022-08-23T18:41:36.444Z,1999.90
2022-08-23T18:44:05.529Z,1999.90
2022-08-23T18:46:34.956Z,1999.90
2022-08-23T18:49:03.325Z,1999.90
2022-08-23T18:51:30.932Z,1999.90
2022-08-23T18:53:58.896Z,1820.97
2022-08-23T18:56:26.648Z,1756.43
2022-08-23T18:58:53.875Z,1999.90
2022-08-23T19:01:23.546Z,1999.90
2022-08-23T19:03:51.884Z,1999.90
2022-08-23T19:06:19.340Z,1999.90
2022-08-23T19:08:47.494Z,1999.90
2022-08-23T19:11:15.649Z,1999.90
2022-08-23T19:13:42.994Z,1999.90
2022-08-23T19:16:15.447Z,1999.90
2022-08-23T19:18:46.115Z,1999.90
2022-08-23T19:21:18.220Z,1999.90
2022-08-23T19:23:45.840Z,1999.90
2022-08-23T19:26:14.894Z,1999.90
2022-08-23T19:28:42.450Z,1999.90
2022-08-23T19:31:11.430Z,1999.90
2022-08-23T19:33:38.779Z,1999.90
2022-08-23T19:36:06.718Z,1999.90
2022-08-23T19:38:34.411Z,1999.90
2022-08-23T19:41:04.740Z,1999.90
2022-08-23T19:43:31.984Z,1999.90
2022-08-23T19:45:59.753Z,1999.90
2022-08-23T19:48:27.166Z,1999.90
2022-08-23T19:50:54.399Z,1999.90
2022-08-23T19:53:21.604Z,1999.90
2022-08-23T19:55:48.895Z,1999.90
2022-08-23T19:58:16.745Z,1999.90
2022-08-23T20:00:43.998Z,1999.90
2022-08-23T20:03:11.881Z,1999.90
2022-08-23T20:05:39.277Z,1999.90
2022-08-23T20:08:07.379Z,1999.90
2022-08-23T20:10:37.169Z,1999.90
2022-08-23T20:13:20.108Z,1999.90
2022-08-23T20:16:02.527Z,1999.90
2022-08-23T20:18:45.390Z,1999.90
2022-08-23T20:21:41.205Z,1999.90
2022-08-23T20:24:32.600Z,1999.90
2022-08-23T20:27:35.912Z,1999.90
2022-08-23T20:30:37.332Z,1999.90
2022-08-23T20:33:35.990Z,1999.90
2022-08-23T20:36:33.370Z,1999.90
2022-08-23T20:39:21.849Z,1999.90
2022-08-23T20:42:08.083Z,1999.90
2022-08-23T20:44:35.422Z,1999.90
2022-08-23T20:47:30.042Z,1999.90
2022-08-23T20:50:04.370Z,1999.90
2022-08-23T20:52:34.988Z,1999.90
2022-08-23T20:55:14.330Z,1999.90
2022-08-23T20:57:54.162Z,1999.90
2022-08-23T21:00:36.144Z,1999.90
2022-08-23T21:03:06.042Z,1999.90
2022-08-23T21:05:43.434Z,1999.90
2022-08-23T21:08:22.457Z,1999.90
2022-08-23T21:10:51.623Z,1999.90
2022-08-23T21:13:31.732Z,1999.90
2022-08-23T21:16:00.089Z,1999.90
2022-08-23T21:18:55.467Z,1999.90
2022-08-23T21:21:21.786Z,1999.90
2022-08-23T21:23:56.049Z,1999.90
2022-08-23T21:26:36.207Z,1999.90
2022-08-23T21:29:07.576Z,1999.90
2022-08-23T21:31:37.709Z,1999.90
2022-08-23T21:34:08.193Z,1999.90
2022-08-23T21:36:36.019Z,1999.90
2022-08-23T21:39:06.694Z,1999.90
2022-08-23T21:41:39.705Z,1999.90
2022-08-23T21:44:11.506Z,1999.90
2022-08-23T21:46:39.504Z,1999.90
2022-08-23T21:49:07.823Z,1999.90
2022-08-23T21:51:35.587Z,1999.90
2022-08-23T21:54:03.243Z,1999.90
2022-08-23T21:56:31.979Z,1999.90
2022-08-23T21:59:01.229Z,1999.90
2022-08-23T22:01:30.879Z,1999.90
2022-08-23T22:03:59.051Z,1999.90
2022-08-23T22:06:27.239Z,1999.90
2022-08-23T22:08:55.091Z,1999.90
2022-08-23T22:11:23.983Z,1999.90
2022-08-23T22:13:53.781Z,1999.90
2022-08-23T22:16:21.143Z,1999.90
2022-08-23T22:18:48.541Z,1999.90
2022-08-23T22:21:15.731Z,1999.90
2022-08-23T22:23:44.471Z,1999.90
2022-08-23T22:26:14.129Z,1999.90
2022-08-23T22:28:44.543Z,1999.90
2022-08-23T22:31:14.726Z,1999.90
2022-08-23T22:33:43.111Z,1999.90
2022-08-23T22:36:13.905Z,1999.90
2022-08-23T22:38:41.182Z,383.48
2022-08-23T22:41:08.633Z,313.92
2022-08-23T22:43:36.155Z,1999.90
2022-08-23T22:46:04.830Z,423.20
2022-08-23T22:48:35.037Z,322.08
2022-08-23T22:51:10.329Z,1562.55
2022-08-23T22:53:40.542Z,1999.90
2022-08-23T22:56:10.099Z,1999.90
2022-08-23T22:58:37.768Z,1999.90
2022-08-23T23:01:07.154Z,1558.85
2022-08-23T23:03:41.434Z,1555.50
2022-08-23T23:06:09.475Z,1999.90
2022-08-23T23:08:36.918Z,1555.07
2022-08-23T23:11:07.348Z,1999.90
2022-08-23T23:13:34.983Z,1578.70
2022-08-23T23:16:07.120Z,1558.68
2022-08-23T23:18:34.512Z,1999.90
2022-08-23T23:21:05.040Z,252.95
2022-08-23T23:23:34.315Z,344.95
2022-08-23T23:26:02.291Z,378.33
2022-08-23T23:28:30.170Z,516.20
2022-08-23T23:30:57.739Z,536.28
2022-08-23T23:33:25.924Z,365.77
2022-08-23T23:35:53.147Z,1574.28
2022-08-23T23:38:20.382Z,1999.90
2022-08-23T23:40:47.577Z,1999.90
2022-08-23T23:43:14.981Z,1999.90
2022-08-23T23:45:42.529Z,1999.90
2022-08-23T23:48:10.282Z,1999.90
2022-08-23T23:50:42.593Z,1999.90
2022-08-23T23:53:15.394Z,1572.18
2022-08-23T23:55:42.913Z,276.77
2022-08-23T23:58:10.416Z,389.05
